FDX813 KSEA-KMEM
Flight info
| Callsign | FDX813 |
|---|---|
| Flight time | N/A |
| Altitude | 33000 |
| Route | SEA1 SEA NORMY J90 MWH KS06K KU87O/N0470F350 KU81Q KD72U KD66W KD60Y CUGGA Q148 MORRR RZC BRBBQ3 |
| Aircraft | B763/H-SDE3FGHIM3RWXY/LB1 |
Departure
| Time | 2026-05-04 05:57 |
|---|---|
| Airport | Seattle–Tacoma International Airport (KSEA) |
Arrival
| Time | N/A |
|---|---|
| Airport | Memphis International Airport (KMEM) |
| Time | Latitude | Longitude | Altitude | Speed | Heading |
|---|---|---|---|---|---|
| 2026-05-04 05:22 | 47.46110 | -122.30154 | 447 ft | 0 kts | 180° |
| 2026-05-04 05:47 | 47.46196 | -122.30077 | 442 ft | 1 kts | 271° |
| 2026-05-04 05:47 | 47.46196 | -122.30075 | 442 ft | 0 kts | 270° |
| 2026-05-04 05:49 | 47.46196 | -122.30078 | 442 ft | 1 kts | 268° |
| 2026-05-04 05:49 | 47.46192 | -122.30122 | 443 ft | 3 kts | 263° |
| 2026-05-04 05:49 | 47.46189 | -122.30156 | 443 ft | 5 kts | 263° |
| 2026-05-04 05:51 | 47.45712 | -122.30619 | 437 ft | 20 kts | 182° |
| 2026-05-04 05:51 | 47.45571 | -122.30620 | 433 ft | 21 kts | 181° |
| 2026-05-04 05:52 | 47.45411 | -122.30621 | 427 ft | 24 kts | 180° |
| 2026-05-04 05:52 | 47.45238 | -122.30622 | 419 ft | 25 kts | 181° |
| 2026-05-04 05:52 | 47.45054 | -122.30625 | 410 ft | 27 kts | 180° |
| 2026-05-04 05:52 | 47.44856 | -122.30627 | 401 ft | 29 kts | 180° |
| 2026-05-04 05:53 | 47.44653 | -122.30630 | 394 ft | 29 kts | 181° |
| 2026-05-04 05:54 | 47.43382 | -122.30559 | 342 ft | 22 kts | 181° |
| 2026-05-04 05:55 | 47.43278 | -122.30563 | 335 ft | 0 kts | 185° |
| 2026-05-04 05:55 | 47.43270 | -122.30564 | 335 ft | 3 kts | 188° |
| 2026-05-04 05:55 | 47.43230 | -122.30584 | 331 ft | 9 kts | 203° |
| 2026-05-04 05:55 | 47.43174 | -122.30686 | 324 ft | 16 kts | 262° |
| 2026-05-04 05:56 | 47.43230 | -122.30801 | 326 ft | 13 kts | 352° |
| 2026-05-04 05:56 | 47.43327 | -122.30805 | 333 ft | 20 kts | 1° |
| 2026-05-04 05:56 | 47.43632 | -122.30799 | 354 ft | 67 kts | 1° |
| 2026-05-04 05:56 | 47.44258 | -122.30795 | 382 ft | 113 kts | 1° |
| 2026-05-04 05:57 | 47.45204 | -122.30785 | 417 ft | 154 kts | 0° |
| 2026-05-04 05:57 | 47.46359 | -122.30773 | 655 ft | 175 kts | 1° |
| 2026-05-04 05:57 | 47.47568 | -122.30799 | 1302 ft | 173 kts | 360° |
| 2026-05-04 05:57 | 47.48737 | -122.30826 | 1954 ft | 170 kts | 2° |
| 2026-05-04 05:58 | 47.49933 | -122.30714 | 2460 ft | 176 kts | 9° |
| 2026-05-04 05:58 | 47.51055 | -122.29976 | 2828 ft | 187 kts | 47° |
| 2026-05-04 05:58 | 47.51613 | -122.28206 | 3132 ft | 205 kts | 85° |
| 2026-05-04 05:58 | 47.51264 | -122.26087 | 3476 ft | 224 kts | 121° |
| 2026-05-04 05:59 | 47.50284 | -122.24181 | 3743 ft | 247 kts | 124° |
| 2026-05-04 05:59 | 47.49407 | -122.21936 | 4238 ft | 259 kts | 111° |
| 2026-05-04 05:59 | 47.48758 | -122.19355 | 4811 ft | 271 kts | 105° |
| 2026-05-04 05:59 | 47.48255 | -122.16709 | 5618 ft | 273 kts | 102° |
| 2026-05-04 06:00 | 47.47819 | -122.13967 | 6396 ft | 277 kts | 100° |
| 2026-05-04 06:00 | 47.47436 | -122.11174 | 7190 ft | 279 kts | 99° |
| 2026-05-04 06:00 | 47.47082 | -122.08365 | 7934 ft | 283 kts | 98° |
| 2026-05-04 06:00 | 47.46737 | -122.05478 | 8643 ft | 288 kts | 98° |
| 2026-05-04 06:01 | 47.46400 | -122.02567 | 9365 ft | 292 kts | 98° |
| 2026-05-04 06:01 | 47.46061 | -121.99596 | 10052 ft | 296 kts | 98° |
| 2026-05-04 06:03 | 47.43287 | -121.75047 | 13387 ft | 393 kts | 97° |
| 2026-05-04 06:03 | 47.42930 | -121.71017 | 14127 ft | 396 kts | 90° |
| 2026-05-04 06:05 | 47.42535 | -121.41615 | 19140 ft | 425 kts | 89° |
| 2026-05-04 06:05 | 47.42400 | -121.32903 | 20467 ft | 432 kts | 89° |
| 2026-05-04 06:05 | 47.42327 | -121.28413 | 21103 ft | 436 kts | 89° |
| 2026-05-04 06:06 | 47.42254 | -121.23957 | 21762 ft | 439 kts | 89° |
| 2026-05-04 06:06 | 47.42179 | -121.19463 | 22346 ft | 443 kts | 89° |
| 2026-05-04 06:06 | 47.42100 | -121.14902 | 22997 ft | 446 kts | 89° |
| 2026-05-04 06:06 | 47.42018 | -121.10278 | 23618 ft | 450 kts | 89° |
| 2026-05-04 06:07 | 47.41935 | -121.05668 | 24267 ft | 453 kts | 89° |
| 2026-05-04 06:07 | 47.41850 | -121.01032 | 24847 ft | 457 kts | 89° |
| 2026-05-04 06:07 | 47.41761 | -120.96319 | 25434 ft | 460 kts | 89° |
| 2026-05-04 06:07 | 47.41671 | -120.91620 | 26042 ft | 462 kts | 89° |
| 2026-05-04 06:08 | 47.41577 | -120.86848 | 26540 ft | 467 kts | 89° |
| 2026-05-04 06:08 | 47.41481 | -120.82059 | 27159 ft | 468 kts | 89° |
| 2026-05-04 06:08 | 47.41383 | -120.77285 | 27630 ft | 473 kts | 89° |
| 2026-05-04 06:08 | 47.41281 | -120.72392 | 28145 ft | 475 kts | 89° |
| 2026-05-04 06:09 | 47.41177 | -120.67513 | 28603 ft | 479 kts | 89° |
| 2026-05-04 06:09 | 47.41069 | -120.62618 | 29138 ft | 480 kts | 88° |
| 2026-05-04 06:11 | 47.38354 | -120.29094 | 32901 ft | 466 kts | 100° |
| 2026-05-04 06:13 | 47.31926 | -119.92078 | 32870 ft | 466 kts | 100° |
| 2026-05-04 06:14 | 47.26181 | -119.59834 | 32849 ft | 467 kts | 100° |
| 2026-05-04 06:15 | 47.24517 | -119.50597 | 32853 ft | 468 kts | 100° |
| 2026-05-04 06:15 | 47.22853 | -119.41412 | 32851 ft | 469 kts | 100° |
| 2026-05-04 06:16 | 47.21050 | -119.32187 | 32846 ft | 471 kts | 108° |
| 2026-05-04 06:16 | 47.18206 | -119.23466 | 32837 ft | 475 kts | 112° |
| 2026-05-04 06:17 | 47.15257 | -119.14815 | 32847 ft | 475 kts | 112° |
| 2026-05-04 06:17 | 47.12283 | -119.06171 | 32852 ft | 475 kts | 113° |
| 2026-05-04 06:18 | 47.09314 | -118.97594 | 32858 ft | 475 kts | 113° |
| 2026-05-04 06:20 | 46.97297 | -118.63203 | 32856 ft | 477 kts | 113° |
| 2026-05-04 06:21 | 46.89712 | -118.41732 | 32847 ft | 475 kts | 113° |
| 2026-05-04 06:22 | 46.86675 | -118.33183 | 32847 ft | 476 kts | 114° |
| 2026-05-04 06:25 | 46.65184 | -117.73461 | 32893 ft | 477 kts | 114° |
| 2026-05-04 06:26 | 46.62076 | -117.64934 | 32899 ft | 478 kts | 114° |
| 2026-05-04 06:26 | 46.58968 | -117.56435 | 32895 ft | 477 kts | 114° |
| 2026-05-04 06:27 | 46.51221 | -117.35361 | 32903 ft | 477 kts | 114° |
| 2026-05-04 06:28 | 46.48077 | -117.26856 | 32904 ft | 478 kts | 115° |
| 2026-05-04 06:28 | 46.44942 | -117.18404 | 32909 ft | 479 kts | 115° |
| 2026-05-04 06:29 | 46.41773 | -117.09885 | 32903 ft | 479 kts | 115° |
| 2026-05-04 06:29 | 46.38628 | -117.01456 | 32891 ft | 479 kts | 115° |
| 2026-05-04 06:30 | 46.35462 | -116.92999 | 32899 ft | 479 kts | 115° |
| 2026-05-04 06:30 | 46.32281 | -116.84529 | 32911 ft | 479 kts | 115° |
| 2026-05-04 06:31 | 46.29098 | -116.76079 | 32924 ft | 479 kts | 115° |
| 2026-05-04 06:31 | 46.25915 | -116.67657 | 32936 ft | 479 kts | 115° |
| 2026-05-04 06:33 | 46.13105 | -116.34019 | 32939 ft | 480 kts | 116° |
| 2026-05-04 06:34 | 46.09929 | -116.25743 | 32942 ft | 481 kts | 116° |
| 2026-05-04 06:34 | 46.06698 | -116.17350 | 32930 ft | 480 kts | 116° |
| 2026-05-04 06:36 | 45.94327 | -115.83789 | 32950 ft | 481 kts | 114° |
| 2026-05-04 06:37 | 45.91335 | -115.75251 | 32977 ft | 481 kts | 114° |
| 2026-05-04 06:37 | 45.88327 | -115.66702 | 32979 ft | 480 kts | 114° |
| 2026-05-04 06:38 | 45.85329 | -115.58208 | 32998 ft | 479 kts | 114° |
| 2026-05-04 06:40 | 45.73210 | -115.24146 | 33030 ft | 481 kts | 114° |
| 2026-05-04 06:40 | 45.70184 | -115.15707 | 33036 ft | 480 kts | 115° |
| 2026-05-04 06:41 | 45.67169 | -115.07325 | 33035 ft | 480 kts | 115° |
| 2026-05-04 06:41 | 45.64111 | -114.98851 | 33032 ft | 480 kts | 114° |
| 2026-05-04 06:42 | 45.61065 | -114.90436 | 33039 ft | 480 kts | 115° |
| 2026-05-04 06:44 | 45.48773 | -114.56744 | 33055 ft | 480 kts | 115° |
| 2026-05-04 06:44 | 45.45663 | -114.48283 | 33050 ft | 480 kts | 115° |
| 2026-05-04 06:45 | 45.42574 | -114.39909 | 33051 ft | 480 kts | 115° |
| 2026-05-04 06:45 | 45.39479 | -114.31541 | 33053 ft | 480 kts | 115° |
| 2026-05-04 06:46 | 45.36369 | -114.23162 | 33050 ft | 481 kts | 115° |
| 2026-05-04 06:46 | 45.33248 | -114.14776 | 33047 ft | 481 kts | 115° |
| 2026-05-04 06:48 | 45.20718 | -113.81369 | 33041 ft | 481 kts | 115° |
| 2026-05-04 06:50 | 45.08125 | -113.48198 | 33048 ft | 480 kts | 116° |
| 2026-05-04 06:51 | 45.04966 | -113.39941 | 33043 ft | 480 kts | 116° |
| 2026-05-04 06:51 | 45.01790 | -113.31660 | 33036 ft | 480 kts | 116° |
| 2026-05-04 06:52 | 44.98607 | -113.23389 | 33031 ft | 480 kts | 116° |
| 2026-05-04 06:52 | 44.95416 | -113.15118 | 33032 ft | 481 kts | 116° |
| 2026-05-04 06:53 | 44.92207 | -113.06832 | 33039 ft | 482 kts | 117° |
| 2026-05-04 06:53 | 44.88999 | -112.98570 | 33047 ft | 482 kts | 116° |
| 2026-05-04 06:54 | 44.85766 | -112.90266 | 33043 ft | 482 kts | 116° |
| 2026-05-04 06:54 | 44.82547 | -112.82023 | 33044 ft | 483 kts | 117° |
| 2026-05-04 06:55 | 44.79313 | -112.73769 | 33039 ft | 482 kts | 117° |
| 2026-05-04 06:55 | 44.76089 | -112.65565 | 33040 ft | 483 kts | 117° |
| 2026-05-04 06:57 | 44.63113 | -112.32777 | 33065 ft | 483 kts | 117° |
| 2026-05-04 06:58 | 44.59860 | -112.24616 | 33064 ft | 483 kts | 117° |
| 2026-05-04 06:58 | 44.56566 | -112.16380 | 33062 ft | 483 kts | 118° |
| 2026-05-04 06:59 | 44.53305 | -112.08247 | 33065 ft | 483 kts | 118° |
| 2026-05-04 06:59 | 44.49963 | -112.00113 | 33073 ft | 483 kts | 122° |
| 2026-05-04 07:01 | 44.34965 | -111.69072 | 33040 ft | 484 kts | 123° |
| 2026-05-04 07:02 | 44.31300 | -111.61569 | 33025 ft | 484 kts | 123° |
| 2026-05-04 07:02 | 44.27525 | -111.53866 | 33016 ft | 484 kts | 123° |
| 2026-05-04 07:03 | 44.23712 | -111.46108 | 33021 ft | 485 kts | 123° |
| 2026-05-04 07:03 | 44.19913 | -111.38397 | 33012 ft | 484 kts | 123° |
| 2026-05-04 07:04 | 44.16101 | -111.30682 | 33007 ft | 484 kts | 123° |
| 2026-05-04 07:04 | 44.12296 | -111.23000 | 33007 ft | 485 kts | 124° |
| 2026-05-04 07:05 | 44.08471 | -111.15298 | 33017 ft | 484 kts | 124° |
| 2026-05-04 07:05 | 44.04655 | -111.07635 | 33012 ft | 484 kts | 124° |
| 2026-05-04 07:06 | 43.98882 | -110.96080 | 33019 ft | 484 kts | 124° |
| 2026-05-04 07:07 | 43.95067 | -110.88470 | 33033 ft | 484 kts | 124° |
| 2026-05-04 07:09 | 43.79599 | -110.57813 | 33118 ft | 487 kts | 124° |
| 2026-05-04 07:09 | 43.75726 | -110.50187 | 33125 ft | 488 kts | 124° |
| 2026-05-04 07:10 | 43.71921 | -110.42713 | 33145 ft | 488 kts | 124° |
| 2026-05-04 07:12 | 43.56202 | -110.12042 | 33155 ft | 491 kts | 125° |
| 2026-05-04 07:12 | 43.52257 | -110.04396 | 33152 ft | 492 kts | 125° |
| 2026-05-04 07:13 | 43.48828 | -109.96666 | 33180 ft | 491 kts | 115° |
| 2026-05-04 07:13 | 43.45875 | -109.88224 | 33143 ft | 493 kts | 115° |
| 2026-05-04 07:14 | 43.38485 | -109.67219 | 33132 ft | 493 kts | 115° |
| 2026-05-04 07:15 | 43.35498 | -109.58772 | 33140 ft | 493 kts | 115° |
| 2026-05-04 07:15 | 43.32476 | -109.50254 | 33131 ft | 494 kts | 115° |
| 2026-05-04 07:16 | 43.29475 | -109.41818 | 33127 ft | 494 kts | 115° |
| 2026-05-04 07:16 | 43.26447 | -109.33334 | 33097 ft | 496 kts | 116° |
| 2026-05-04 07:17 | 43.23422 | -109.24881 | 33053 ft | 494 kts | 116° |
| 2026-05-04 07:17 | 43.20386 | -109.16424 | 33055 ft | 496 kts | 116° |
| 2026-05-04 07:18 | 43.17399 | -109.08131 | 33042 ft | 496 kts | 116° |
| 2026-05-04 07:18 | 43.14331 | -108.99638 | 33022 ft | 496 kts | 116° |
| 2026-05-04 07:19 | 43.11292 | -108.91251 | 33022 ft | 498 kts | 116° |
| 2026-05-04 07:19 | 43.08203 | -108.82752 | 33023 ft | 499 kts | 116° |
| 2026-05-04 07:20 | 43.05115 | -108.74280 | 33013 ft | 497 kts | 116° |
| 2026-05-04 07:20 | 43.02033 | -108.65848 | 32976 ft | 499 kts | 116° |
| 2026-05-04 07:22 | 42.89605 | -108.32113 | 32993 ft | 499 kts | 117° |
| 2026-05-04 07:23 | 42.86466 | -108.23656 | 32984 ft | 500 kts | 117° |
| 2026-05-04 07:23 | 42.83333 | -108.15238 | 32990 ft | 500 kts | 117° |
| 2026-05-04 07:24 | 42.80197 | -108.06840 | 33000 ft | 500 kts | 117° |
| 2026-05-04 07:24 | 42.77054 | -107.98447 | 33006 ft | 500 kts | 117° |
| 2026-05-04 07:26 | 42.64433 | -107.64992 | 33004 ft | 501 kts | 117° |
| 2026-05-04 07:27 | 42.61310 | -107.56775 | 33013 ft | 502 kts | 117° |
| 2026-05-04 07:27 | 42.58112 | -107.48386 | 33014 ft | 501 kts | 117° |
| 2026-05-04 07:28 | 42.54935 | -107.40073 | 33010 ft | 500 kts | 117° |
| 2026-05-04 07:28 | 42.51720 | -107.31686 | 33010 ft | 503 kts | 118° |
| 2026-05-04 07:29 | 42.48496 | -107.23304 | 33005 ft | 503 kts | 118° |
| 2026-05-04 07:29 | 42.45258 | -107.14907 | 33011 ft | 503 kts | 118° |
| 2026-05-04 07:30 | 42.42009 | -107.06506 | 33001 ft | 504 kts | 118° |
| 2026-05-04 07:30 | 42.38762 | -106.98134 | 32999 ft | 504 kts | 118° |
| 2026-05-04 07:31 | 42.35511 | -106.89777 | 32997 ft | 506 kts | 118° |
| 2026-05-04 07:33 | 42.22383 | -106.56274 | 33027 ft | 511 kts | 118° |
| 2026-05-04 07:33 | 42.19069 | -106.47879 | 33032 ft | 511 kts | 118° |
| 2026-05-04 07:34 | 42.15715 | -106.39404 | 33027 ft | 510 kts | 118° |
| 2026-05-04 07:34 | 42.12376 | -106.30996 | 33012 ft | 512 kts | 119° |
| 2026-05-04 07:35 | 42.09016 | -106.22555 | 33015 ft | 512 kts | 119° |
| 2026-05-04 07:35 | 42.05654 | -106.14137 | 33004 ft | 513 kts | 119° |
| 2026-05-04 07:36 | 42.02271 | -106.05688 | 32995 ft | 515 kts | 119° |
| 2026-05-04 07:38 | 41.87005 | -105.73292 | 33033 ft | 516 kts | 124° |
| 2026-05-04 07:38 | 41.83132 | -105.65362 | 33033 ft | 517 kts | 124° |
| 2026-05-04 07:39 | 41.79202 | -105.57341 | 33052 ft | 516 kts | 124° |
| 2026-05-04 07:39 | 41.75284 | -105.49364 | 33046 ft | 517 kts | 124° |
| 2026-05-04 07:40 | 41.71333 | -105.41341 | 33048 ft | 516 kts | 124° |
| 2026-05-04 07:40 | 41.67365 | -105.33307 | 33043 ft | 515 kts | 125° |
| 2026-05-04 07:41 | 41.63438 | -105.25378 | 33024 ft | 517 kts | 125° |
| 2026-05-04 07:41 | 41.59463 | -105.17371 | 33016 ft | 517 kts | 125° |
| 2026-05-04 07:42 | 41.55509 | -105.09426 | 33013 ft | 517 kts | 125° |
| 2026-05-04 07:42 | 41.51517 | -105.01425 | 33011 ft | 517 kts | 125° |
| 2026-05-04 07:43 | 41.47510 | -104.93418 | 33010 ft | 518 kts | 125° |
| 2026-05-04 07:43 | 41.43660 | -104.85744 | 33009 ft | 517 kts | 125° |
| 2026-05-04 07:44 | 41.39664 | -104.77799 | 33009 ft | 517 kts | 125° |
| 2026-05-04 07:44 | 41.35688 | -104.69913 | 33008 ft | 517 kts | 125° |
| 2026-05-04 07:45 | 41.31669 | -104.61964 | 33001 ft | 517 kts | 125° |
| 2026-05-04 07:45 | 41.27641 | -104.54017 | 33007 ft | 517 kts | 125° |
| 2026-05-04 07:46 | 41.23644 | -104.46152 | 32992 ft | 517 kts | 125° |
| 2026-05-04 07:46 | 41.19619 | -104.38251 | 32983 ft | 517 kts | 125° |
| 2026-05-04 07:47 | 41.15594 | -104.30370 | 32977 ft | 516 kts | 126° |
| 2026-05-04 07:49 | 40.99421 | -103.98867 | 32988 ft | 518 kts | 124° |
| 2026-05-04 07:49 | 40.95533 | -103.90825 | 32980 ft | 520 kts | 124° |
| 2026-05-04 07:50 | 40.91637 | -103.82804 | 32976 ft | 520 kts | 124° |
| 2026-05-04 07:50 | 40.87739 | -103.74805 | 32963 ft | 520 kts | 124° |
| 2026-05-04 07:51 | 40.83821 | -103.66787 | 32957 ft | 521 kts | 124° |
| 2026-05-04 07:51 | 40.79887 | -103.58757 | 32953 ft | 522 kts | 124° |
| 2026-05-04 07:52 | 40.75934 | -103.50709 | 32939 ft | 522 kts | 124° |
| 2026-05-04 07:52 | 40.72008 | -103.42738 | 32935 ft | 523 kts | 124° |
| 2026-05-04 07:54 | 40.56139 | -103.10722 | 32892 ft | 523 kts | 124° |
| 2026-05-04 07:55 | 40.52165 | -103.02756 | 32900 ft | 523 kts | 124° |
| 2026-05-04 07:55 | 40.48165 | -102.94758 | 32907 ft | 524 kts | 124° |
| 2026-05-04 07:56 | 40.44167 | -102.86785 | 32911 ft | 524 kts | 124° |
| 2026-05-04 07:56 | 40.40174 | -102.78842 | 32903 ft | 524 kts | 124° |
| 2026-05-04 07:57 | 40.36160 | -102.70877 | 32902 ft | 524 kts | 124° |
| 2026-05-04 07:57 | 40.32146 | -102.62934 | 32893 ft | 524 kts | 124° |
| 2026-05-04 07:58 | 40.28111 | -102.54970 | 32890 ft | 523 kts | 124° |
| 2026-05-04 07:58 | 40.24085 | -102.47041 | 32878 ft | 524 kts | 124° |
| 2026-05-04 07:59 | 40.20055 | -102.39127 | 32865 ft | 524 kts | 124° |
| 2026-05-04 07:59 | 40.16007 | -102.31195 | 32861 ft | 524 kts | 125° |
| 2026-05-04 08:00 | 40.11950 | -102.23268 | 32872 ft | 524 kts | 125° |
| 2026-05-04 08:02 | 39.95288 | -101.92098 | 32837 ft | 525 kts | 129° |
| 2026-05-04 08:02 | 39.90843 | -101.84614 | 32837 ft | 525 kts | 129° |
| 2026-05-04 08:03 | 39.86383 | -101.77129 | 32821 ft | 525 kts | 129° |
| 2026-05-04 08:03 | 39.81918 | -101.69651 | 32827 ft | 524 kts | 129° |
| 2026-05-04 08:04 | 39.77434 | -101.62164 | 32832 ft | 522 kts | 129° |
| 2026-05-04 08:04 | 39.72973 | -101.54733 | 32838 ft | 523 kts | 129° |
| 2026-05-04 08:05 | 39.68592 | -101.47450 | 32830 ft | 525 kts | 129° |
| 2026-05-04 08:05 | 39.64128 | -101.40047 | 32824 ft | 524 kts | 129° |
| 2026-05-04 08:06 | 39.59638 | -101.32619 | 32809 ft | 523 kts | 130° |
| 2026-05-04 08:06 | 39.55150 | -101.25211 | 32816 ft | 522 kts | 130° |
| 2026-05-04 08:08 | 39.37206 | -100.95767 | 32775 ft | 522 kts | 130° |
| 2026-05-04 08:11 | 39.17781 | -100.62015 | 32804 ft | 522 kts | 127° |
| 2026-05-04 08:11 | 39.11384 | -100.50697 | 32813 ft | 523 kts | 127° |
| 2026-05-04 08:12 | 39.07103 | -100.43144 | 32807 ft | 521 kts | 127° |
| 2026-05-04 08:12 | 39.02871 | -100.35698 | 32807 ft | 521 kts | 127° |
| 2026-05-04 08:13 | 38.98587 | -100.28173 | 32793 ft | 519 kts | 128° |
| 2026-05-04 08:13 | 38.94336 | -100.20728 | 32793 ft | 520 kts | 128° |
| 2026-05-04 08:14 | 38.90155 | -100.13422 | 32795 ft | 521 kts | 128° |
| 2026-05-04 08:16 | 38.72975 | -99.83569 | 32785 ft | 522 kts | 128° |
| 2026-05-04 08:16 | 38.68671 | -99.76134 | 32777 ft | 522 kts | 128° |
| 2026-05-04 08:17 | 38.64362 | -99.68705 | 32773 ft | 521 kts | 128° |
| 2026-05-04 08:17 | 38.60394 | -99.60975 | 32789 ft | 524 kts | 118° |
| 2026-05-04 08:19 | 38.46660 | -99.28287 | 32758 ft | 522 kts | 120° |
| 2026-05-04 08:20 | 38.43246 | -99.20202 | 32759 ft | 522 kts | 120° |
| 2026-05-04 08:20 | 38.39811 | -99.12090 | 32766 ft | 522 kts | 120° |
| 2026-05-04 08:21 | 38.36366 | -99.03975 | 32762 ft | 521 kts | 120° |
| 2026-05-04 08:21 | 38.32933 | -98.95908 | 32751 ft | 521 kts | 120° |
| 2026-05-04 08:22 | 38.29474 | -98.87803 | 32761 ft | 521 kts | 120° |
| 2026-05-04 08:24 | 38.15619 | -98.55538 | 32749 ft | 521 kts | 120° |
| 2026-05-04 08:24 | 38.12140 | -98.47488 | 32752 ft | 521 kts | 120° |
| 2026-05-04 08:25 | 38.08622 | -98.39414 | 32764 ft | 519 kts | 122° |
| 2026-05-04 08:25 | 38.04828 | -98.31691 | 32758 ft | 518 kts | 124° |
| 2026-05-04 08:27 | 37.89537 | -98.00670 | 32767 ft | 521 kts | 124° |
| 2026-05-04 08:28 | 37.85703 | -97.92929 | 32781 ft | 523 kts | 124° |
| 2026-05-04 08:28 | 37.81833 | -97.85138 | 32775 ft | 523 kts | 124° |
| 2026-05-04 08:29 | 37.77953 | -97.77348 | 32769 ft | 524 kts | 124° |
| 2026-05-04 08:31 | 37.62430 | -97.46350 | 32794 ft | 524 kts | 124° |
| 2026-05-04 08:33 | 37.46770 | -97.15409 | 32804 ft | 525 kts | 124° |
| 2026-05-04 08:35 | 37.31073 | -96.84582 | 32787 ft | 523 kts | 124° |
| 2026-05-04 08:35 | 37.27148 | -96.76884 | 32811 ft | 523 kts | 124° |
| 2026-05-04 08:37 | 37.13450 | -96.50047 | 32811 ft | 523 kts | 124° |
| 2026-05-04 08:38 | 37.09521 | -96.42359 | 32824 ft | 523 kts | 124° |
| 2026-05-04 08:38 | 37.05599 | -96.34689 | 32814 ft | 523 kts | 124° |
| 2026-05-04 08:40 | 36.90018 | -96.04257 | 32850 ft | 522 kts | 124° |
| 2026-05-04 08:41 | 36.86071 | -95.96556 | 32858 ft | 522 kts | 124° |
| 2026-05-04 08:41 | 36.82229 | -95.89066 | 32856 ft | 522 kts | 124° |
| 2026-05-04 08:42 | 36.78368 | -95.81541 | 32846 ft | 524 kts | 124° |
| 2026-05-04 08:42 | 36.74451 | -95.73913 | 32848 ft | 522 kts | 124° |
| 2026-05-04 08:43 | 36.70556 | -95.66332 | 32855 ft | 525 kts | 124° |
| 2026-05-04 08:43 | 36.66620 | -95.58672 | 32859 ft | 524 kts | 124° |
| 2026-05-04 08:44 | 36.62710 | -95.51070 | 32861 ft | 523 kts | 124° |
| 2026-05-04 08:46 | 36.46972 | -95.20503 | 32863 ft | 525 kts | 124° |
| 2026-05-04 08:46 | 36.43047 | -95.12888 | 32871 ft | 525 kts | 125° |
| 2026-05-04 08:47 | 36.39112 | -95.05261 | 32870 ft | 525 kts | 124° |
| 2026-05-04 08:47 | 36.35169 | -94.97621 | 32869 ft | 527 kts | 124° |
| 2026-05-04 08:48 | 36.31237 | -94.90006 | 32883 ft | 528 kts | 124° |
| 2026-05-04 08:48 | 36.27299 | -94.82383 | 32891 ft | 527 kts | 124° |
| 2026-05-04 08:49 | 36.23329 | -94.74702 | 32906 ft | 527 kts | 124° |
| 2026-05-04 08:50 | 36.09616 | -94.48201 | 32932 ft | 527 kts | 124° |
| 2026-05-04 08:51 | 36.05662 | -94.40571 | 32944 ft | 528 kts | 124° |
| 2026-05-04 08:51 | 36.01687 | -94.32898 | 32945 ft | 528 kts | 125° |
| 2026-05-04 08:52 | 35.97741 | -94.25290 | 32945 ft | 527 kts | 125° |
| 2026-05-04 08:52 | 35.93802 | -94.17696 | 32956 ft | 526 kts | 125° |
| 2026-05-04 08:54 | 35.78015 | -93.87307 | 32935 ft | 526 kts | 124° |
| 2026-05-04 08:55 | 35.74122 | -93.79823 | 32945 ft | 529 kts | 124° |
| 2026-05-04 08:55 | 35.70169 | -93.72225 | 32945 ft | 529 kts | 125° |
| 2026-05-04 09:01 | 35.28428 | -92.92245 | 32963 ft | 533 kts | 124° |
| 2026-05-04 09:01 | 35.24424 | -92.84598 | 32953 ft | 533 kts | 124° |
| 2026-05-04 09:02 | 35.20449 | -92.77007 | 32950 ft | 533 kts | 124° |
| 2026-05-04 09:02 | 35.16445 | -92.69364 | 32963 ft | 533 kts | 124° |
| 2026-05-04 09:03 | 35.12453 | -92.61746 | 32971 ft | 534 kts | 124° |
| 2026-05-04 09:03 | 35.08463 | -92.54140 | 32980 ft | 535 kts | 124° |
| 2026-05-04 09:04 | 35.04464 | -92.46518 | 32978 ft | 535 kts | 124° |
| 2026-05-04 09:04 | 35.00444 | -92.38861 | 32994 ft | 535 kts | 124° |
| 2026-05-04 09:05 | 34.96416 | -92.31192 | 32972 ft | 536 kts | 125° |
| 2026-05-04 09:05 | 34.92411 | -92.23569 | 32971 ft | 534 kts | 124° |
| 2026-05-04 09:06 | 34.88423 | -92.15984 | 32965 ft | 535 kts | 124° |
| 2026-05-04 09:08 | 34.72363 | -91.85476 | 32983 ft | 536 kts | 124° |
| 2026-05-04 09:08 | 34.68348 | -91.77854 | 32991 ft | 536 kts | 124° |
| 2026-05-04 09:09 | 34.64352 | -91.70278 | 32988 ft | 535 kts | 124° |
| 2026-05-04 09:09 | 34.60327 | -91.62649 | 33002 ft | 536 kts | 124° |
| 2026-05-04 09:10 | 34.56303 | -91.55025 | 33015 ft | 537 kts | 124° |
| 2026-05-04 09:10 | 34.52282 | -91.47411 | 33011 ft | 537 kts | 124° |
| 2026-05-04 09:11 | 34.48261 | -91.39800 | 33010 ft | 539 kts | 124° |
| 2026-05-04 09:11 | 34.44228 | -91.32167 | 32990 ft | 536 kts | 124° |
| 2026-05-04 09:12 | 34.40225 | -91.24598 | 32998 ft | 537 kts | 124° |
| 2026-05-04 09:14 | 34.24176 | -90.94288 | 33027 ft | 538 kts | 124° |
| 2026-05-04 09:14 | 34.20144 | -90.86682 | 33021 ft | 540 kts | 124° |
| 2026-05-04 09:15 | 34.16101 | -90.79059 | 33032 ft | 537 kts | 124° |
| 2026-05-04 09:15 | 34.12100 | -90.71517 | 33043 ft | 537 kts | 124° |
| 2026-05-04 09:17 | 33.93991 | -90.37433 | 33042 ft | 535 kts | 124° |
| 2026-05-04 09:18 | 33.89981 | -90.29897 | 33052 ft | 538 kts | 124° |
| 2026-05-04 09:18 | 33.85923 | -90.22271 | 33041 ft | 537 kts | 124° |
| 2026-05-04 09:19 | 33.81908 | -90.14733 | 33036 ft | 537 kts | 124° |
| 2026-05-04 09:19 | 33.77883 | -90.07179 | 33036 ft | 538 kts | 124° |
| 2026-05-04 09:20 | 33.73848 | -89.99606 | 33033 ft | 537 kts | 124° |
| 2026-05-04 09:20 | 33.69802 | -89.92020 | 33050 ft | 540 kts | 124° |
| 2026-05-04 09:21 | 33.65781 | -89.84484 | 33073 ft | 538 kts | 124° |
| 2026-05-04 09:21 | 33.61752 | -89.76937 | 33062 ft | 537 kts | 124° |
| 2026-05-04 09:22 | 33.57718 | -89.69381 | 33063 ft | 537 kts | 123° |
| 2026-05-04 09:22 | 33.53676 | -89.61816 | 33066 ft | 539 kts | 124° |
| 2026-05-04 09:23 | 33.49646 | -89.54275 | 33070 ft | 538 kts | 123° |
| 2026-05-04 09:23 | 33.45636 | -89.46779 | 33070 ft | 538 kts | 123° |
| 2026-05-04 09:25 | 33.29504 | -89.16648 | 33082 ft | 538 kts | 124° |
| 2026-05-04 09:26 | 33.25491 | -89.09158 | 33083 ft | 537 kts | 124° |
| 2026-05-04 09:26 | 33.21470 | -89.01662 | 33076 ft | 536 kts | 124° |
| 2026-05-04 09:27 | 33.17443 | -88.94157 | 33082 ft | 537 kts | 124° |
| 2026-05-04 09:27 | 33.13401 | -88.86627 | 33073 ft | 538 kts | 124° |
| 2026-05-04 09:28 | 33.09369 | -88.79119 | 33067 ft | 537 kts | 124° |
| 2026-05-04 09:28 | 33.05352 | -88.71643 | 33075 ft | 538 kts | 123° |
| 2026-05-04 09:29 | 33.01327 | -88.64156 | 33070 ft | 538 kts | 123° |
| 2026-05-04 09:29 | 32.97361 | -88.56781 | 33081 ft | 538 kts | 123° |
| 2026-05-04 09:30 | 32.93312 | -88.49255 | 33083 ft | 537 kts | 123° |
| 2026-05-04 09:30 | 32.89304 | -88.41808 | 33092 ft | 537 kts | 123° |
| 2026-05-04 09:31 | 32.85326 | -88.34422 | 33081 ft | 538 kts | 124° |
| 2026-05-04 09:31 | 32.81313 | -88.26972 | 33067 ft | 538 kts | 124° |
| 2026-05-04 09:32 | 32.77256 | -88.19444 | 33068 ft | 539 kts | 124° |
| 2026-05-04 09:34 | 32.61086 | -87.89477 | 33079 ft | 539 kts | 123° |
| 2026-05-04 09:34 | 32.57059 | -87.82024 | 33076 ft | 539 kts | 123° |
| 2026-05-04 09:35 | 32.53023 | -87.74557 | 33065 ft | 538 kts | 124° |
| 2026-05-04 09:35 | 32.49003 | -87.67120 | 33080 ft | 539 kts | 123° |
| 2026-05-04 09:37 | 32.33006 | -87.37570 | 33084 ft | 537 kts | 123° |
| 2026-05-04 09:38 | 32.28969 | -87.30122 | 33090 ft | 538 kts | 124° |
| 2026-05-04 09:38 | 32.24947 | -87.22701 | 33080 ft | 536 kts | 124° |
| 2026-05-04 09:39 | 32.20910 | -87.15260 | 33082 ft | 538 kts | 124° |
| 2026-05-04 09:39 | 32.16897 | -87.07866 | 33094 ft | 538 kts | 124° |
| 2026-05-04 09:40 | 32.12878 | -87.00462 | 33090 ft | 535 kts | 123° |
| 2026-05-04 09:40 | 32.08841 | -86.93028 | 33085 ft | 536 kts | 124° |
| 2026-05-04 09:42 | 31.92783 | -86.63496 | 33095 ft | 536 kts | 123° |
| 2026-05-04 09:43 | 31.88777 | -86.56136 | 33097 ft | 536 kts | 123° |
| 2026-05-04 09:43 | 31.84763 | -86.48767 | 33098 ft | 536 kts | 123° |
| 2026-05-04 09:44 | 31.80766 | -86.41431 | 33084 ft | 535 kts | 124° |
| 2026-05-04 09:46 | 31.64660 | -86.11897 | 33079 ft | 536 kts | 124° |
| 2026-05-04 09:46 | 31.60640 | -86.04536 | 33095 ft | 539 kts | 124° |
| 2026-05-04 09:47 | 31.56620 | -85.97178 | 33102 ft | 537 kts | 123° |
| 2026-05-04 09:49 | 31.40533 | -85.67760 | 33105 ft | 535 kts | 123° |
| 2026-05-04 09:51 | 31.26480 | -85.42101 | 33123 ft | 537 kts | 123° |
| 2026-05-04 09:51 | 31.22484 | -85.34814 | 33120 ft | 536 kts | 124° |
| 2026-05-04 09:52 | 31.18454 | -85.27464 | 33090 ft | 535 kts | 124° |
| 2026-05-04 09:52 | 31.14446 | -85.20158 | 33098 ft | 536 kts | 124° |
| 2026-05-04 09:53 | 31.10438 | -85.12856 | 33089 ft | 534 kts | 124° |
| 2026-05-04 09:53 | 31.06428 | -85.05556 | 33093 ft | 534 kts | 124° |
| 2026-05-04 09:54 | 31.02426 | -84.98271 | 33095 ft | 535 kts | 124° |
| 2026-05-04 09:54 | 30.98404 | -84.90958 | 33097 ft | 536 kts | 124° |
| 2026-05-04 09:55 | 30.94380 | -84.83637 | 33092 ft | 534 kts | 124° |
| 2026-05-04 09:55 | 30.90511 | -84.76607 | 33101 ft | 535 kts | 124° |
| 2026-05-04 09:56 | 30.86500 | -84.69316 | 33098 ft | 537 kts | 124° |
| 2026-05-04 09:56 | 30.82476 | -84.62009 | 33095 ft | 535 kts | 124° |
| 2026-05-04 09:57 | 30.78448 | -84.54694 | 33100 ft | 536 kts | 124° |
| 2026-05-04 09:57 | 30.74437 | -84.47415 | 33100 ft | 539 kts | 124° |
| 2026-05-04 09:58 | 30.70383 | -84.40061 | 33093 ft | 537 kts | 124° |
| 2026-05-04 09:58 | 30.66356 | -84.32758 | 33078 ft | 536 kts | 124° |
| 2026-05-04 10:00 | 30.50281 | -84.03643 | 33084 ft | 535 kts | 124° |
| 2026-05-04 10:04 | 30.22069 | -83.52658 | 33102 ft | 539 kts | 124° |
| 2026-05-04 10:04 | 30.18035 | -83.45381 | 33105 ft | 539 kts | 124° |
| 2026-05-04 10:05 | 30.13989 | -83.38084 | 33107 ft | 540 kts | 124° |
| 2026-05-04 10:05 | 30.09938 | -83.30784 | 33087 ft | 541 kts | 124° |
| 2026-05-04 10:06 | 30.05895 | -83.23496 | 33076 ft | 539 kts | 124° |
| 2026-05-04 10:06 | 30.01840 | -83.16193 | 33101 ft | 542 kts | 124° |
| 2026-05-04 10:08 | 29.87691 | -82.90733 | 33086 ft | 542 kts | 124° |
| 2026-05-04 10:08 | 29.83634 | -82.83439 | 33079 ft | 540 kts | 124° |
| 2026-05-04 10:09 | 29.79591 | -82.76174 | 33085 ft | 543 kts | 124° |
| 2026-05-04 10:09 | 29.75706 | -82.69194 | 33095 ft | 542 kts | 124° |
| 2026-05-04 10:10 | 29.71743 | -82.62074 | 33079 ft | 539 kts | 124° |
| 2026-05-04 10:10 | 29.67695 | -82.54810 | 33096 ft | 542 kts | 124° |
| 2026-05-04 10:11 | 29.63626 | -82.47508 | 33091 ft | 540 kts | 124° |
| 2026-05-04 10:11 | 29.59585 | -82.40262 | 33096 ft | 543 kts | 124° |
| 2026-05-04 10:12 | 29.55498 | -82.32931 | 33085 ft | 541 kts | 124° |
| 2026-05-04 10:12 | 29.51462 | -82.25699 | 33073 ft | 540 kts | 125° |
| 2026-05-04 10:13 | 29.47397 | -82.18416 | 33088 ft | 541 kts | 125° |
| 2026-05-04 10:13 | 29.43337 | -82.11147 | 33080 ft | 541 kts | 124° |
| 2026-05-04 10:14 | 29.39303 | -82.03928 | 33083 ft | 541 kts | 124° |
| 2026-05-04 10:16 | 29.23059 | -81.74879 | 33076 ft | 543 kts | 125° |
| 2026-05-04 10:16 | 29.19001 | -81.67629 | 33067 ft | 543 kts | 125° |
| 2026-05-04 10:17 | 29.14912 | -81.60329 | 33072 ft | 544 kts | 125° |
| 2026-05-04 10:19 | 28.98716 | -81.31436 | 33069 ft | 544 kts | 126° |
| 2026-05-04 10:19 | 28.94618 | -81.24132 | 33071 ft | 545 kts | 126° |
| 2026-05-04 10:20 | 28.90534 | -81.16856 | 33071 ft | 544 kts | 126° |
| 2026-05-04 10:20 | 28.86472 | -81.09622 | 33062 ft | 543 kts | 126° |
| 2026-05-04 10:21 | 28.82387 | -81.02351 | 33058 ft | 544 kts | 126° |
| 2026-05-04 10:21 | 28.78324 | -80.95120 | 33069 ft | 542 kts | 126° |
| 2026-05-04 10:22 | 28.72228 | -80.84278 | 33058 ft | 541 kts | 126° |
| 2026-05-04 10:23 | 28.68166 | -80.77058 | 33058 ft | 541 kts | 126° |
| 2026-05-04 10:25 | 28.51948 | -80.48254 | 33053 ft | 539 kts | 126° |
| 2026-05-04 10:25 | 28.47893 | -80.41058 | 33055 ft | 539 kts | 127° |
| 2026-05-04 10:26 | 28.43859 | -80.33904 | 33051 ft | 540 kts | 127° |
| 2026-05-04 10:26 | 28.39816 | -80.26733 | 33031 ft | 538 kts | 127° |
| 2026-05-04 10:27 | 28.35788 | -80.19596 | 33040 ft | 538 kts | 127° |
| 2026-05-04 10:27 | 28.31760 | -80.12457 | 33034 ft | 536 kts | 128° |
| 2026-05-04 10:28 | 28.27723 | -80.05312 | 33042 ft | 539 kts | 127° |
| 2026-05-04 10:28 | 28.23839 | -79.98438 | 33031 ft | 537 kts | 128° |
| 2026-05-04 10:29 | 28.19823 | -79.91331 | 33043 ft | 537 kts | 128° |
| 2026-05-04 10:29 | 28.15806 | -79.84224 | 33035 ft | 537 kts | 128° |
| 2026-05-04 10:30 | 28.11775 | -79.77091 | 33031 ft | 533 kts | 128° |
| 2026-05-04 10:30 | 28.07797 | -79.70061 | 33025 ft | 533 kts | 128° |
| 2026-05-04 10:31 | 28.03760 | -79.62931 | 33038 ft | 536 kts | 128° |
| 2026-05-04 10:32 | 27.89761 | -79.38213 | 33034 ft | 530 kts | 128° |
| 2026-05-04 10:33 | 27.85803 | -79.31232 | 33016 ft | 530 kts | 129° |